createdAt,value
2022-08-21T00:00:21.984Z,100.00
2022-08-21T00:02:55.727Z,100.00
2022-08-21T00:05:23.840Z,100.00
2022-08-21T00:07:50.629Z,100.00
2022-08-21T00:10:18.273Z,100.00
2022-08-21T00:12:46.348Z,100.00
2022-08-21T00:15:19.456Z,100.00
2022-08-21T00:17:46.705Z,100.00
2022-08-21T00:20:15.388Z,100.00
2022-08-21T00:22:42.327Z,100.00
2022-08-21T00:25:09.867Z,100.00
2022-08-21T00:27:36.864Z,100.00
2022-08-21T00:30:06.777Z,100.00
2022-08-21T00:32:33.616Z,100.00
2022-08-21T00:35:00.215Z,100.00
2022-08-21T00:37:26.688Z,100.00
2022-08-21T00:39:54.280Z,100.00
2022-08-21T00:42:21.296Z,100.00
2022-08-21T00:44:49.923Z,100.00
2022-08-21T00:47:17.528Z,100.00
2022-08-21T00:49:44.108Z,100.00
2022-08-21T00:52:16.542Z,100.00
2022-08-21T00:54:46.405Z,100.00
2022-08-21T00:57:18.080Z,100.00
2022-08-21T00:59:48.824Z,100.00
2022-08-21T01:02:15.371Z,100.00
2022-08-21T01:04:41.993Z,100.00
2022-08-21T01:07:09.103Z,100.00
2022-08-21T01:09:36.865Z,100.00
2022-08-21T01:12:04.454Z,100.00
2022-08-21T01:14:31.338Z,100.00
2022-08-21T01:17:00.151Z,100.00
2022-08-21T01:19:27.082Z,100.00
2022-08-21T01:21:54.671Z,100.00
2022-08-21T01:24:21.522Z,100.00
2022-08-21T01:26:50.331Z,100.00
2022-08-21T01:29:37.112Z,100.00
2022-08-21T01:32:12.080Z,100.00
2022-08-21T01:34:42.137Z,100.00
2022-08-21T01:37:09.214Z,100.00
2022-08-21T01:39:36.865Z,100.00
2022-08-21T01:42:03.790Z,100.00
2022-08-21T01:44:30.233Z,100.00
2022-08-21T01:47:00.344Z,100.00
2022-08-21T01:49:27.016Z,100.00
2022-08-21T01:51:53.638Z,100.00
2022-08-21T01:54:20.462Z,100.00
2022-08-21T01:56:49.523Z,100.00
2022-08-21T01:59:15.981Z,100.00
2022-08-21T02:01:42.887Z,100.00
2022-08-21T02:04:10.623Z,100.00
2022-08-21T02:06:38.177Z,100.00
2022-08-21T02:09:07.044Z,100.00
2022-08-21T02:11:33.984Z,100.00
2022-08-21T02:14:00.399Z,100.00
2022-08-21T02:16:27.064Z,100.00
2022-08-21T02:18:53.632Z,100.00
2022-08-21T02:21:20.228Z,100.00
2022-08-21T02:23:46.709Z,100.00
2022-08-21T02:26:13.542Z,100.00
2022-08-21T02:28:41.382Z,100.00
2022-08-21T02:31:08.398Z,100.00
2022-08-21T02:33:35.198Z,100.00
2022-08-21T02:36:03.392Z,100.00
2022-08-21T02:38:34.198Z,100.00
2022-08-21T02:41:01.138Z,100.00
2022-08-21T02:43:28.984Z,100.00
2022-08-21T02:45:57.555Z,100.00
2022-08-21T02:48:27.820Z,100.00
2022-08-21T02:51:09.778Z,100.00
2022-08-21T02:53:37.189Z,100.00
2022-08-21T02:56:06.874Z,100.00
2022-08-21T02:58:37.923Z,100.00
2022-08-21T03:01:04.835Z,100.00
2022-08-21T03:03:31.564Z,100.00
2022-08-21T03:05:58.002Z,100.00
2022-08-21T03:08:27.414Z,100.00
2022-08-21T03:10:55.656Z,100.00
2022-08-21T03:13:22.588Z,100.00
2022-08-21T03:15:50.402Z,100.00
2022-08-21T03:18:17.257Z,100.00
2022-08-21T03:20:46.228Z,100.00
2022-08-21T03:23:14.240Z,100.00
2022-08-21T03:25:43.439Z,100.00
2022-08-21T03:28:14.038Z,100.00
2022-08-21T03:30:46.971Z,100.00
2022-08-21T03:33:15.117Z,100.00
2022-08-21T03:35:49.835Z,100.00
2022-08-21T03:38:16.262Z,100.00
2022-08-21T03:40:44.117Z,100.00
2022-08-21T03:43:10.860Z,100.00
2022-08-21T03:45:39.022Z,100.00
2022-08-21T03:48:06.239Z,100.00
2022-08-21T03:50:40.808Z,100.00
2022-08-21T03:53:09.070Z,100.00
2022-08-21T03:55:47.786Z,100.00
2022-08-21T03:58:17.385Z,100.00
2022-08-21T04:00:46.831Z,100.00
2022-08-21T04:03:13.648Z,100.00
2022-08-21T04:05:40.174Z,100.00
2022-08-21T04:08:07.639Z,100.00
2022-08-21T04:10:36.439Z,100.00
2022-08-21T04:13:03.471Z,100.00
2022-08-21T04:15:30.125Z,100.00
2022-08-21T04:17:56.576Z,100.00
2022-08-21T04:20:24.014Z,100.00
2022-08-21T04:22:51.662Z,100.00
2022-08-21T04:25:20.888Z,100.00
2022-08-21T04:27:47.662Z,100.00
2022-08-21T04:30:16.064Z,100.00
2022-08-21T04:32:48.223Z,100.00
2022-08-21T04:35:18.068Z,100.00
2022-08-21T04:37:44.476Z,100.00
2022-08-21T04:40:14.380Z,100.00
2022-08-21T04:42:50.291Z,100.00
2022-08-21T04:45:32.757Z,100.00
2022-08-21T04:48:01.953Z,100.00
2022-08-21T04:50:44.939Z,100.00
2022-08-21T04:53:16.810Z,100.00
2022-08-21T04:55:44.371Z,100.00
2022-08-21T04:58:13.988Z,100.00
2022-08-21T05:00:41.635Z,100.00
2022-08-21T05:03:09.898Z,100.00
2022-08-21T05:05:36.741Z,100.00
2022-08-21T05:08:04.191Z,100.00
2022-08-21T05:10:32.367Z,100.00
2022-08-21T05:12:59.776Z,100.00
2022-08-21T05:15:26.367Z,100.00
2022-08-21T05:17:59.360Z,100.00
2022-08-21T05:20:29.003Z,100.00
2022-08-21T05:22:55.543Z,100.00
2022-08-21T05:25:23.912Z,100.00
2022-08-21T05:27:52.145Z,100.00
2022-08-21T05:30:20.051Z,100.00
2022-08-21T05:32:47.340Z,100.00
2022-08-21T05:35:14.566Z,100.00
2022-08-21T05:37:41.302Z,100.00
2022-08-21T05:40:21.415Z,100.00
2022-08-21T05:42:54.685Z,100.00
2022-08-21T05:45:26.993Z,100.00
2022-08-21T05:48:11.592Z,100.00
2022-08-21T05:50:38.982Z,100.00
2022-08-21T05:53:07.765Z,100.00
2022-08-21T05:55:34.700Z,100.00
2022-08-21T05:58:01.562Z,100.00
2022-08-21T06:00:27.995Z,100.00
2022-08-21T06:02:54.443Z,100.00
2022-08-21T06:05:25.221Z,100.00
2022-08-21T06:08:03.803Z,100.00
2022-08-21T06:10:30.202Z,100.00
2022-08-21T06:12:56.736Z,100.00
2022-08-21T06:15:23.207Z,100.00
2022-08-21T06:17:49.607Z,100.00
2022-08-21T06:20:16.114Z,100.00
2022-08-21T06:22:42.540Z,100.00
2022-08-21T06:25:10.229Z,100.00
2022-08-21T06:27:36.763Z,100.00
2022-08-21T06:30:05.510Z,100.00
2022-08-21T06:32:31.987Z,100.00
2022-08-21T06:34:58.512Z,100.00
2022-08-21T06:37:24.992Z,100.00
2022-08-21T06:39:51.573Z,100.00
2022-08-21T06:42:19.132Z,100.00
2022-08-21T06:44:46.603Z,100.00
2022-08-21T06:47:13.187Z,100.00
2022-08-21T06:49:39.734Z,100.00
2022-08-21T06:52:11.149Z,100.00
2022-08-21T06:54:38.307Z,100.00
2022-08-21T06:57:05.049Z,100.00
2022-08-21T06:59:32.754Z,100.00
2022-08-21T07:02:00.757Z,100.00
2022-08-21T07:04:27.491Z,100.00
2022-08-21T07:06:53.959Z,100.00
2022-08-21T07:09:24.387Z,100.00
2022-08-21T07:11:54.222Z,100.00
2022-08-21T07:14:20.756Z,100.00
2022-08-21T07:16:48.132Z,100.00
2022-08-21T07:19:14.581Z,100.00
2022-08-21T07:21:41.184Z,100.00
2022-08-21T07:24:07.828Z,100.00
2022-08-21T07:26:34.210Z,100.00
2022-08-21T07:29:00.653Z,100.00
2022-08-21T07:31:27.809Z,100.00
2022-08-21T07:33:54.968Z,100.00
2022-08-21T07:36:21.573Z,100.00
2022-08-21T07:38:48.119Z,100.00
2022-08-21T07:41:26.258Z,100.00
2022-08-21T07:43:53.116Z,100.00
2022-08-21T07:46:20.567Z,100.00
2022-08-21T07:48:47.449Z,100.00
2022-08-21T07:51:17.476Z,97.46
2022-08-21T07:53:50.056Z,97.69
2022-08-21T07:56:17.255Z,99.19
2022-08-21T07:58:43.648Z,99.82
2022-08-21T08:01:10.107Z,97.00
2022-08-21T08:03:36.568Z,97.47
2022-08-21T08:06:05.606Z,98.12
2022-08-21T08:08:32.806Z,95.81
2022-08-21T08:11:00.858Z,96.46
2022-08-21T08:13:27.346Z,92.51
2022-08-21T08:15:53.814Z,90.48
2022-08-21T08:18:20.304Z,86.32
2022-08-21T08:20:46.697Z,78.44
2022-08-21T08:23:14.528Z,78.74
2022-08-21T08:25:41.068Z,81.03
2022-08-21T08:28:16.595Z,78.54
2022-08-21T08:30:45.578Z,77.87
2022-08-21T08:33:11.997Z,76.56
2022-08-21T08:35:39.233Z,74.63
2022-08-21T08:38:06.025Z,75.65
2022-08-21T08:40:56.154Z,72.02
2022-08-21T08:43:22.732Z,72.13
2022-08-21T08:45:52.116Z,72.43
2022-08-21T08:48:37.425Z,74.44
2022-08-21T08:51:07.439Z,72.40
2022-08-21T08:53:43.305Z,68.60
2022-08-21T08:56:10.704Z,69.54
2022-08-21T08:58:43.815Z,68.71
2022-08-21T09:01:18.294Z,69.56
2022-08-21T09:03:50.579Z,73.43
2022-08-21T09:06:54.483Z,74.46
2022-08-21T09:09:39.280Z,70.24
2022-08-21T09:12:20.611Z,65.54
2022-08-21T09:15:03.338Z,65.55
2022-08-21T09:17:40.403Z,64.46
2022-08-21T09:20:29.850Z,62.17
2022-08-21T09:22:59.480Z,64.27
2022-08-21T09:25:31.074Z,63.17
2022-08-21T09:27:57.463Z,64.27
2022-08-21T09:30:33.272Z,64.48
2022-08-21T09:33:00.535Z,62.74
2022-08-21T09:35:27.376Z,63.34
2022-08-21T09:37:59.009Z,60.66
2022-08-21T09:40:40.667Z,62.98
2022-08-21T09:43:12.722Z,64.32
2022-08-21T09:45:42.368Z,60.61
2022-08-21T09:48:26.219Z,61.14
2022-08-21T09:50:55.024Z,57.53
2022-08-21T09:53:26.738Z,59.08
2022-08-21T09:56:11.810Z,58.74
2022-08-21T09:58:42.413Z,60.13
2022-08-21T10:01:15.966Z,57.91
2022-08-21T10:03:42.698Z,53.59
2022-08-21T10:06:11.695Z,57.72
2022-08-21T10:08:40.309Z,60.52
2022-08-21T10:11:13.510Z,59.13
2022-08-21T10:14:02.722Z,54.34
2022-08-21T10:16:40.445Z,54.63
2022-08-21T10:19:13.582Z,59.33
2022-08-21T10:22:00.251Z,59.45
2022-08-21T10:24:45.296Z,55.77
2022-08-21T10:27:19.804Z,57.53
2022-08-21T10:29:50.265Z,54.70
2022-08-21T10:32:40.988Z,53.27
2022-08-21T10:35:15.069Z,56.29
2022-08-21T10:38:09.096Z,54.46
2022-08-21T10:41:02.331Z,51.03
2022-08-21T10:43:45.713Z,49.87
2022-08-21T10:46:24.267Z,52.11
2022-08-21T10:49:14.865Z,54.94
2022-08-21T10:51:55.290Z,49.68
2022-08-21T10:54:48.479Z,50.00
2022-08-21T10:57:31.868Z,49.04
2022-08-21T11:00:07.662Z,48.03
2022-08-21T11:02:41.274Z,50.11
2022-08-21T11:05:25.388Z,50.57
2022-08-21T11:08:02.515Z,50.30
2022-08-21T11:10:40.779Z,51.45
2022-08-21T11:13:45.590Z,48.05
2022-08-21T11:16:19.684Z,45.07
2022-08-21T11:19:08.197Z,49.41
2022-08-21T11:21:49.645Z,47.18
2022-08-21T11:24:36.431Z,50.08
2022-08-21T11:27:08.663Z,48.99
2022-08-21T11:29:38.890Z,48.22
2022-08-21T11:32:25.692Z,49.63
2022-08-21T11:35:10.648Z,49.49
2022-08-21T11:37:59.186Z,53.39
2022-08-21T11:40:50.494Z,51.35
2022-08-21T11:43:35.729Z,49.47
2022-08-21T11:46:25.080Z,47.21
2022-08-21T11:49:06.739Z,48.47
2022-08-21T11:51:46.755Z,45.86
2022-08-21T11:54:44.371Z,54.34
2022-08-21T11:57:29.019Z,50.53
2022-08-21T12:00:08.993Z,53.00
2022-08-21T12:02:40.563Z,53.20
2022-08-21T12:05:23.047Z,53.63
2022-08-21T12:08:01.088Z,53.58
2022-08-21T12:10:37.580Z,53.43
2022-08-21T12:13:40.563Z,54.54
2022-08-21T12:16:12.119Z,50.92
2022-08-21T12:18:41.480Z,54.56
2022-08-21T12:21:23.192Z,55.19
2022-08-21T12:24:02.269Z,57.67
2022-08-21T12:26:33.441Z,56.89
2022-08-21T12:29:13.505Z,58.33
2022-08-21T12:31:56.787Z,55.46
2022-08-21T12:34:35.726Z,57.61
2022-08-21T12:37:16.273Z,58.19
2022-08-21T12:39:47.491Z,56.01
2022-08-21T12:42:21.756Z,55.65
2022-08-21T12:45:00.504Z,59.76
2022-08-21T12:47:45.416Z,62.92
2022-08-21T12:50:20.380Z,62.00
2022-08-21T12:53:00.311Z,62.26
2022-08-21T12:55:30.710Z,55.33
2022-08-21T12:57:57.578Z,55.78
2022-08-21T13:00:29.614Z,54.54
2022-08-21T13:02:57.746Z,56.67
2022-08-21T13:05:36.177Z,57.56
2022-08-21T13:08:08.878Z,62.25
2022-08-21T13:10:37.004Z,61.92
2022-08-21T13:13:13.341Z,60.73
2022-08-21T13:15:42.249Z,62.86
2022-08-21T13:18:29.016Z,65.56
2022-08-21T13:21:12.664Z,64.32
2022-08-21T13:23:39.552Z,63.21
2022-08-21T13:26:19.123Z,63.10
2022-08-21T13:28:48.408Z,63.75
2022-08-21T13:31:22.934Z,64.33
2022-08-21T13:33:51.350Z,66.50
2022-08-21T13:36:25.146Z,65.34
2022-08-21T13:38:54.319Z,64.94
2022-08-21T13:41:28.484Z,66.31
2022-08-21T13:44:04.900Z,67.47
2022-08-21T13:46:37.886Z,70.58
2022-08-21T13:49:07.161Z,71.36
2022-08-21T13:51:34.778Z,73.07
2022-08-21T13:54:01.653Z,72.89
2022-08-21T13:56:41.800Z,75.82
2022-08-21T13:59:08.829Z,75.54
2022-08-21T14:01:50.342Z,78.20
2022-08-21T14:04:21.234Z,78.05
2022-08-21T14:06:47.721Z,77.43
2022-08-21T14:09:27.739Z,77.39
2022-08-21T14:11:55.627Z,77.57
2022-08-21T14:14:30.872Z,78.45
2022-08-21T14:17:25.289Z,74.22
2022-08-21T14:19:52.246Z,71.97
2022-08-21T14:22:44.292Z,70.99
2022-08-21T14:25:19.992Z,68.52
2022-08-21T14:27:57.483Z,64.22
2022-08-21T14:30:35.054Z,63.93
2022-08-21T14:33:03.317Z,59.62
2022-08-21T14:35:30.094Z,63.14
2022-08-21T14:37:58.706Z,61.70
2022-08-21T14:40:26.038Z,56.98
2022-08-21T14:42:52.599Z,54.88
2022-08-21T14:45:30.553Z,54.80
2022-08-21T14:47:58.486Z,54.11
2022-08-21T14:50:27.923Z,56.04
2022-08-21T14:52:55.096Z,57.75
2022-08-21T14:55:21.730Z,55.85
2022-08-21T14:57:53.828Z,57.53
2022-08-21T15:00:24.093Z,57.35
2022-08-21T15:02:58.459Z,57.12
2022-08-21T15:05:33.076Z,57.26
2022-08-21T15:08:00.305Z,57.66
2022-08-21T15:10:26.795Z,58.06
2022-08-21T15:12:53.232Z,56.43
2022-08-21T15:15:19.870Z,55.00
2022-08-21T15:17:48.460Z,56.37
2022-08-21T15:20:15.309Z,56.71
2022-08-21T15:22:41.711Z,55.55
2022-08-21T15:25:14.721Z,57.89
2022-08-21T15:27:41.182Z,56.26
2022-08-21T15:30:08.627Z,59.96
2022-08-21T15:32:35.039Z,59.42
2022-08-21T15:35:02.420Z,60.59
2022-08-21T15:37:28.819Z,61.40
2022-08-21T15:39:55.494Z,62.62
2022-08-21T15:42:22.589Z,61.83
2022-08-21T15:44:49.311Z,62.50
2022-08-21T15:47:18.884Z,65.61
2022-08-21T15:49:46.337Z,66.91
2022-08-21T15:52:15.146Z,67.69
2022-08-21T15:54:42.175Z,67.59
2022-08-21T15:57:12.866Z,69.80
2022-08-21T15:59:42.762Z,70.11
2022-08-21T16:02:15.138Z,72.52
2022-08-21T16:04:42.016Z,72.13
2022-08-21T16:07:09.831Z,72.47
2022-08-21T16:09:36.711Z,74.41
2022-08-21T16:12:05.433Z,75.26
2022-08-21T16:14:34.048Z,75.88
2022-08-21T16:17:00.615Z,78.34
2022-08-21T16:19:29.563Z,77.37
2022-08-21T16:21:55.968Z,77.71
2022-08-21T16:24:22.390Z,77.63
2022-08-21T16:26:57.645Z,77.76
2022-08-21T16:29:28.297Z,79.15
2022-08-21T16:31:55.757Z,78.28
2022-08-21T16:34:22.188Z,77.60
2022-08-21T16:36:48.761Z,77.57
2022-08-21T16:39:15.201Z,77.74
2022-08-21T16:41:41.571Z,78.84
2022-08-21T16:44:08.620Z,78.13
2022-08-21T16:46:40.108Z,80.09
2022-08-21T16:49:07.830Z,80.14
2022-08-21T16:51:34.497Z,81.04
2022-08-21T16:54:01.175Z,84.12
2022-08-21T16:56:27.768Z,82.90
2022-08-21T16:58:55.475Z,85.25
2022-08-21T17:01:25.140Z,85.04
2022-08-21T17:03:53.290Z,85.32
2022-08-21T17:06:22.179Z,85.01
2022-08-21T17:08:52.396Z,84.69
2022-08-21T17:11:37.295Z,85.06
2022-08-21T17:14:19.649Z,86.32
2022-08-21T17:16:50.784Z,87.79
2022-08-21T17:19:18.339Z,86.50
2022-08-21T17:21:45.094Z,88.20
2022-08-21T17:24:15.353Z,87.37
2022-08-21T17:26:43.620Z,87.51
2022-08-21T17:29:12.420Z,89.49
2022-08-21T17:31:40.956Z,90.84
2022-08-21T17:34:07.881Z,91.45
2022-08-21T17:36:34.438Z,91.45
2022-08-21T17:39:01.089Z,92.86
2022-08-21T17:41:27.782Z,93.26
2022-08-21T17:43:54.963Z,93.49
2022-08-21T17:46:28.058Z,94.37
2022-08-21T17:48:55.256Z,94.23
2022-08-21T17:51:22.506Z,93.99
2022-08-21T17:53:49.095Z,95.71
2022-08-21T17:56:18.370Z,97.05
2022-08-21T17:58:48.797Z,100.00
2022-08-21T18:01:16.164Z,99.41
2022-08-21T18:03:43.037Z,98.81
2022-08-21T18:06:12.320Z,94.24
2022-08-21T18:08:41.985Z,96.42
2022-08-21T18:11:09.123Z,97.56
2022-08-21T18:13:39.887Z,100.00
2022-08-21T18:16:06.974Z,100.00
2022-08-21T18:18:40.882Z,100.00
2022-08-21T18:21:07.932Z,98.92
2022-08-21T18:23:44.242Z,97.93
2022-08-21T18:26:16.128Z,97.53
2022-08-21T18:28:44.147Z,97.86
2022-08-21T18:31:11.854Z,99.66
2022-08-21T18:33:43.622Z,98.91
2022-08-21T18:36:27.046Z,98.72
2022-08-21T18:38:53.950Z,99.44
2022-08-21T18:41:20.904Z,100.00
2022-08-21T18:43:47.913Z,100.00
2022-08-21T18:46:14.397Z,100.00
2022-08-21T18:48:42.496Z,100.00
2022-08-21T18:51:11.216Z,100.00
2022-08-21T18:53:38.539Z,100.00
2022-08-21T18:56:06.923Z,100.00
2022-08-21T18:58:35.286Z,100.00
2022-08-21T19:01:01.840Z,100.00
2022-08-21T19:03:28.769Z,100.00
2022-08-21T19:05:55.248Z,100.00
2022-08-21T19:08:23.711Z,100.00
2022-08-21T19:10:54.650Z,100.00
2022-08-21T19:13:22.409Z,100.00
2022-08-21T19:15:52.727Z,100.00
2022-08-21T19:18:24.103Z,100.00
2022-08-21T19:20:55.470Z,100.00
2022-08-21T19:26:12.157Z,100.00
2022-08-21T19:28:44.714Z,100.00
2022-08-21T19:31:24.801Z,100.00
2022-08-21T19:34:16.539Z,100.00
2022-08-21T19:36:43.564Z,100.00
2022-08-21T19:39:12.224Z,100.00
2022-08-21T19:41:42.466Z,100.00
2022-08-21T19:44:13.254Z,100.00
2022-08-21T19:46:42.921Z,100.00
2022-08-21T19:49:14.400Z,100.00
2022-08-21T19:51:41.144Z,100.00
2022-08-21T19:54:30.167Z,100.00
2022-08-21T19:56:58.879Z,100.00
2022-08-21T19:59:31.033Z,100.00
2022-08-21T20:01:57.464Z,100.00
2022-08-21T20:04:23.862Z,100.00
2022-08-21T20:06:52.026Z,100.00
2022-08-21T20:09:19.662Z,100.00
2022-08-21T20:11:49.334Z,100.00
2022-08-21T20:14:19.564Z,100.00
2022-08-21T20:16:47.321Z,100.00
2022-08-21T20:19:13.919Z,100.00
2022-08-21T20:21:43.641Z,100.00
2022-08-21T20:24:14.670Z,100.00
2022-08-21T20:29:35.013Z,100.00
2022-08-21T20:32:07.749Z,100.00
2022-08-21T20:34:34.615Z,100.00
2022-08-21T20:37:01.337Z,100.00
2022-08-21T20:39:27.863Z,100.00
2022-08-21T20:41:55.346Z,100.00
2022-08-21T20:44:22.221Z,100.00
2022-08-21T20:46:53.863Z,100.00
2022-08-21T20:49:27.694Z,100.00
2022-08-21T20:51:55.583Z,100.00
2022-08-21T20:54:41.657Z,100.00
2022-08-21T20:57:34.268Z,100.00
2022-08-21T21:00:14.615Z,100.00
2022-08-21T21:03:04.303Z,100.00
2022-08-21T21:05:36.316Z,100.00
2022-08-21T21:08:12.081Z,100.00
2022-08-21T21:10:51.184Z,100.00
2022-08-21T21:13:29.907Z,100.00
2022-08-21T21:16:02.759Z,100.00
2022-08-21T21:18:43.846Z,100.00
2022-08-21T21:21:14.701Z,100.00
2022-08-21T21:23:54.925Z,100.00
2022-08-21T21:26:29.973Z,100.00
2022-08-21T21:29:10.619Z,100.00
2022-08-21T21:31:37.674Z,100.00
2022-08-21T21:34:04.607Z,100.00
2022-08-21T21:36:56.407Z,100.00
2022-08-21T21:39:41.358Z,100.00
2022-08-21T21:42:32.943Z,100.00
2022-08-21T21:45:09.283Z,100.00
2022-08-21T21:48:05.844Z,100.00
2022-08-21T21:50:42.980Z,100.00
2022-08-21T21:53:32.899Z,100.00
2022-08-21T21:56:11.548Z,100.00
2022-08-21T21:58:50.073Z,100.00
2022-08-21T22:01:35.722Z,100.00
2022-08-21T22:04:34.420Z,100.00
2022-08-21T22:07:28.871Z,100.00
2022-08-21T22:10:20.024Z,100.00
2022-08-21T22:13:13.317Z,100.00
2022-08-21T22:15:52.975Z,100.00
2022-08-21T22:18:26.375Z,100.00
2022-08-21T22:21:00.228Z,100.00
2022-08-21T22:23:31.852Z,100.00
2022-08-21T22:26:09.783Z,100.00
2022-08-21T22:28:41.321Z,100.00
2022-08-21T22:31:11.286Z,100.00
2022-08-21T22:33:37.855Z,100.00
2022-08-21T22:36:19.858Z,100.00
2022-08-21T22:38:47.538Z,100.00
2022-08-21T22:41:28.813Z,100.00
2022-08-21T22:44:01.722Z,100.00
2022-08-21T22:46:44.818Z,100.00
2022-08-21T22:49:29.477Z,100.00
2022-08-21T22:52:22.456Z,100.00
2022-08-21T22:54:51.690Z,100.00
2022-08-21T22:57:35.094Z,100.00
2022-08-21T23:00:36.429Z,100.00
2022-08-21T23:03:03.703Z,100.00
2022-08-21T23:05:30.544Z,100.00
2022-08-21T23:08:13.394Z,100.00
2022-08-21T23:10:41.911Z,100.00
2022-08-21T23:13:13.054Z,100.00
2022-08-21T23:15:56.758Z,100.00
2022-08-21T23:19:05.691Z,100.00
2022-08-21T23:21:47.327Z,100.00
2022-08-21T23:24:31.339Z,100.00
2022-08-21T23:27:32.022Z,100.00
2022-08-21T23:30:18.524Z,100.00
2022-08-21T23:32:56.561Z,100.00
2022-08-21T23:35:51.835Z,100.00
2022-08-21T23:38:47.870Z,100.00
2022-08-21T23:41:34.615Z,100.00
2022-08-21T23:44:10.245Z,100.00
2022-08-21T23:47:01.752Z,100.00
2022-08-21T23:49:37.226Z,100.00
2022-08-21T23:52:25.735Z,100.00
2022-08-21T23:55:06.441Z,100.00
2022-08-21T23:57:39.286Z,100.00
